sensor_id;sensor_type;location;lat;lon;timestamp;pressure;altitude;pressure_sealevel;temperature;humidity
25430;BME280;13360;48.152;-1.788;2022-09-30T00:02:17;101103.94;;;12.31;100.00
25430;BME280;13360;48.152;-1.788;2022-09-30T00:04:43;101089.31;;;12.26;100.00
25430;BME280;13360;48.152;-1.788;2022-09-30T00:07:08;101087.22;;;12.17;100.00
25430;BME280;13360;48.152;-1.788;2022-09-30T00:09:34;101089.19;;;12.17;100.00
25430;BME280;13360;48.152;-1.788;2022-09-30T00:11:59;101086.41;;;12.17;100.00
25430;BME280;13360;48.152;-1.788;2022-09-30T00:14:25;101097.28;;;12.13;100.00
25430;BME280;13360;48.152;-1.788;2022-09-30T00:16:50;101113.28;;;12.16;100.00
25430;BME280;13360;48.152;-1.788;2022-09-30T00:19:16;101091.50;;;12.10;100.00
25430;BME280;13360;48.152;-1.788;2022-09-30T00:21:41;101100.69;;;12.05;100.00
25430;BME280;13360;48.152;-1.788;2022-09-30T00:24:07;101108.94;;;12.10;100.00
25430;BME280;13360;48.152;-1.788;2022-09-30T00:26:33;101105.06;;;12.11;100.00
25430;BME280;13360;48.152;-1.788;2022-09-30T00:29:00;101089.31;;;12.07;100.00
25430;BME280;13360;48.152;-1.788;2022-09-30T00:31:29;101078.53;;;12.05;100.00
25430;BME280;13360;48.152;-1.788;2022-09-30T00:33:55;101091.81;;;12.08;100.00
25430;BME280;13360;48.152;-1.788;2022-09-30T00:36:39;101083.50;;;12.08;100.00
25430;BME280;13360;48.152;-1.788;2022-09-30T00:39:07;101083.50;;;12.08;100.00
25430;BME280;13360;48.152;-1.788;2022-09-30T00:41:33;101082.44;;;12.04;100.00
25430;BME280;13360;48.152;-1.788;2022-09-30T00:43:59;101096.22;;;12.09;100.00
25430;BME280;13360;48.152;-1.788;2022-09-30T00:46:53;101085.16;;;12.09;100.00
25430;BME280;13360;48.152;-1.788;2022-09-30T00:49:22;101079.72;;;11.99;100.00
25430;BME280;13360;48.152;-1.788;2022-09-30T00:51:54;101088.03;;;11.99;100.00
25430;BME280;13360;48.152;-1.788;2022-09-30T00:54:24;101080.03;;;11.98;100.00
25430;BME280;13360;48.152;-1.788;2022-09-30T00:56:55;101075.41;;;11.93;100.00
25430;BME280;13360;48.152;-1.788;2022-09-30T00:59:24;101082.34;;;11.90;100.00
25430;BME280;13360;48.152;-1.788;2022-09-30T01:01:51;101092.34;;;11.86;100.00
25430;BME280;13360;48.152;-1.788;2022-09-30T01:04:20;101096.50;;;11.89;100.00
25430;BME280;13360;48.152;-1.788;2022-09-30T01:06:46;101088.50;;;11.87;100.00
25430;BME280;13360;48.152;-1.788;2022-09-30T01:09:12;101077.25;;;11.79;100.00
25430;BME280;13360;48.152;-1.788;2022-09-30T01:11:38;101086.94;;;11.76;100.00
25430;BME280;13360;48.152;-1.788;2022-09-30T01:14:13;101079.53;;;11.72;100.00
25430;BME280;13360;48.152;-1.788;2022-09-30T01:22:35;101103.91;;;11.70;100.00
25430;BME280;13360;48.152;-1.788;2022-09-30T01:33:37;101085.94;;;11.67;100.00
25430;BME280;13360;48.152;-1.788;2022-09-30T01:38:47;101080.53;;;11.57;100.00
25430;BME280;13360;48.152;-1.788;2022-09-30T01:47:23;101118.56;;;11.46;100.00
25430;BME280;13360;48.152;-1.788;2022-09-30T01:52:27;101087.13;;;11.37;100.00
25430;BME280;13360;48.152;-1.788;2022-09-30T02:00:25;101139.56;;;11.47;100.00
25430;BME280;13360;48.152;-1.788;2022-09-30T02:02:58;101114.72;;;11.42;100.00
25430;BME280;13360;48.152;-1.788;2022-09-30T02:08:30;101115.28;;;11.39;100.00
25430;BME280;13360;48.152;-1.788;2022-09-30T02:11:01;101085.16;;;11.38;100.00
25430;BME280;13360;48.152;-1.788;2022-09-30T02:13:33;101090.16;;;11.36;100.00
25430;BME280;13360;48.152;-1.788;2022-09-30T02:16:06;101090.47;;;11.34;100.00
25430;BME280;13360;48.152;-1.788;2022-09-30T02:19:02;101076.47;;;11.25;100.00
25430;BME280;13360;48.152;-1.788;2022-09-30T02:21:31;101083.97;;;11.20;100.00
25430;BME280;13360;48.152;-1.788;2022-09-30T02:24:02;101093.88;;;11.26;100.00
25430;BME280;13360;48.152;-1.788;2022-09-30T02:26:41;101088.69;;;11.19;100.00
25430;BME280;13360;48.152;-1.788;2022-09-30T02:29:14;101103.63;;;11.18;100.00
25430;BME280;13360;48.152;-1.788;2022-09-30T02:31:42;101125.97;;;11.22;100.00
25430;BME280;13360;48.152;-1.788;2022-09-30T02:34:14;101129.88;;;11.21;100.00
25430;BME280;13360;48.152;-1.788;2022-09-30T02:36:47;101126.84;;;11.17;100.00
25430;BME280;13360;48.152;-1.788;2022-09-30T02:41:54;101115.03;;;11.12;100.00
25430;BME280;13360;48.152;-1.788;2022-09-30T02:44:22;101127.16;;;11.16;100.00
25430;BME280;13360;48.152;-1.788;2022-09-30T02:47:07;101113.69;;;11.09;100.00
25430;BME280;13360;48.152;-1.788;2022-09-30T02:49:48;101131.31;;;11.13;100.00
25430;BME280;13360;48.152;-1.788;2022-09-30T02:55:27;101108.44;;;11.08;100.00
25430;BME280;13360;48.152;-1.788;2022-09-30T03:00:23;101110.16;;;11.04;100.00
25430;BME280;13360;48.152;-1.788;2022-09-30T03:02:53;101110.81;;;10.90;100.00
25430;BME280;13360;48.152;-1.788;2022-09-30T03:05:21;101117.44;;;10.89;100.00
25430;BME280;13360;48.152;-1.788;2022-09-30T03:07:47;101133.44;;;10.92;100.00
25430;BME280;13360;48.152;-1.788;2022-09-30T03:10:14;101106.16;;;10.86;100.00
25430;BME280;13360;48.152;-1.788;2022-09-30T03:18:09;101131.81;;;10.91;100.00
25430;BME280;13360;48.152;-1.788;2022-09-30T03:23:38;101119.91;;;10.91;100.00
25430;BME280;13360;48.152;-1.788;2022-09-30T03:34:36;101137.97;;;10.78;100.00
25430;BME280;13360;48.152;-1.788;2022-09-30T03:42:42;101146.59;;;10.72;100.00
25430;BME280;13360;48.152;-1.788;2022-09-30T03:47:50;101139.97;;;10.73;100.00
25430;BME280;13360;48.152;-1.788;2022-09-30T03:50:20;101125.63;;;10.71;100.00
25430;BME280;13360;48.152;-1.788;2022-09-30T03:52:48;101123.72;;;10.66;100.00
25430;BME280;13360;48.152;-1.788;2022-09-30T03:55:14;101120.97;;;10.61;100.00
25430;BME280;13360;48.152;-1.788;2022-09-30T03:57:41;101143.06;;;10.61;100.00
25430;BME280;13360;48.152;-1.788;2022-09-30T04:00:10;101136.72;;;10.60;100.00
25430;BME280;13360;48.152;-1.788;2022-09-30T04:02:35;101136.47;;;10.62;100.00
25430;BME280;13360;48.152;-1.788;2022-09-30T04:05:03;101116.56;;;10.60;100.00
25430;BME280;13360;48.152;-1.788;2022-09-30T04:07:29;101132.31;;;10.64;100.00
25430;BME280;13360;48.152;-1.788;2022-09-30T04:09:54;101127.06;;;10.58;100.00
25430;BME280;13360;48.152;-1.788;2022-09-30T04:12:20;101135.34;;;10.63;100.00
25430;BME280;13360;48.152;-1.788;2022-09-30T04:14:45;101110.50;;;10.58;100.00
25430;BME280;13360;48.152;-1.788;2022-09-30T04:17:11;101115.50;;;10.56;100.00
25430;BME280;13360;48.152;-1.788;2022-09-30T04:19:36;101136.47;;;10.62;100.00
25430;BME280;13360;48.152;-1.788;2022-09-30T04:22:05;101112.16;;;10.59;100.00
25430;BME280;13360;48.152;-1.788;2022-09-30T04:24:31;101112.50;;;10.52;100.00
25430;BME280;13360;48.152;-1.788;2022-09-30T04:26:56;101116.13;;;10.48;100.00
25430;BME280;13360;48.152;-1.788;2022-09-30T04:29:22;101118.09;;;10.42;100.00
25430;BME280;13360;48.152;-1.788;2022-09-30T04:31:47;101115.63;;;10.35;100.00
25430;BME280;13360;48.152;-1.788;2022-09-30T04:34:12;101108.75;;;10.33;100.00
25430;BME280;13360;48.152;-1.788;2022-09-30T04:36:38;101108.75;;;10.33;100.00
25430;BME280;13360;48.152;-1.788;2022-09-30T04:39:03;101112.09;;;10.30;100.00
25430;BME280;13360;48.152;-1.788;2022-09-30T04:41:28;101120.38;;;10.30;100.00
25430;BME280;13360;48.152;-1.788;2022-09-30T04:43:54;101105.78;;;10.24;100.00
25430;BME280;13360;48.152;-1.788;2022-09-30T04:46:20;101129.50;;;10.25;100.00
25430;BME280;13360;48.152;-1.788;2022-09-30T04:48:47;101111.06;;;10.21;100.00
25430;BME280;13360;48.152;-1.788;2022-09-30T04:51:18;101116.56;;;10.21;100.00
25430;BME280;13360;48.152;-1.788;2022-09-30T04:53:45;101114.03;;;10.19;100.00
25430;BME280;13360;48.152;-1.788;2022-09-30T04:56:11;101127.88;;;10.24;100.00
25430;BME280;13360;48.152;-1.788;2022-09-30T04:58:36;101113.25;;;10.24;100.00
25430;BME280;13360;48.152;-1.788;2022-09-30T05:01:09;101115.44;;;10.17;100.00
25430;BME280;13360;48.152;-1.788;2022-09-30T05:03:35;101129.50;;;10.20;100.00
25430;BME280;13360;48.152;-1.788;2022-09-30T05:06:02;101134.47;;;10.18;100.00
25430;BME280;13360;48.152;-1.788;2022-09-30T05:08:27;101139.16;;;10.18;100.00
25430;BME280;13360;48.152;-1.788;2022-09-30T05:10:57;101136.72;;;10.11;100.00
25430;BME280;13360;48.152;-1.788;2022-09-30T05:13:24;101297.34;;;10.18;100.00
25430;BME280;13360;48.152;-1.788;2022-09-30T05:15:51;101254.28;;;10.17;100.00
25430;BME280;13360;48.152;-1.788;2022-09-30T05:18:18;101200.75;;;10.13;100.00
25430;BME280;13360;48.152;-1.788;2022-09-30T05:20:44;101181.19;;;10.09;100.00
25430;BME280;13360;48.152;-1.788;2022-09-30T05:23:09;101169.88;;;10.06;100.00
25430;BME280;13360;48.152;-1.788;2022-09-30T05:25:34;101176.47;;;10.10;100.00
25430;BME280;13360;48.152;-1.788;2022-09-30T05:28:00;101169.09;;;10.00;100.00
25430;BME280;13360;48.152;-1.788;2022-09-30T05:30:26;101187.00;;;10.03;100.00
25430;BME280;13360;48.152;-1.788;2022-09-30T05:32:52;101186.44;;;10.06;100.00
25430;BME280;13360;48.152;-1.788;2022-09-30T05:35:17;101189.16;;;10.11;100.00
25430;BME280;13360;48.152;-1.788;2022-09-30T05:37:42;101172.63;;;10.06;100.00
25430;BME280;13360;48.152;-1.788;2022-09-30T05:40:08;101181.47;;;10.08;100.00
25430;BME280;13360;48.152;-1.788;2022-09-30T05:42:33;101172.09;;;9.99;100.00
25430;BME280;13360;48.152;-1.788;2022-09-30T05:45:02;101169.91;;;9.96;100.00
25430;BME280;13360;48.152;-1.788;2022-09-30T05:47:28;101177.34;;;9.95;100.00
25430;BME280;13360;48.152;-1.788;2022-09-30T05:49:53;101181.78;;;9.91;100.00
25430;BME280;13360;48.152;-1.788;2022-09-30T05:52:18;101184.56;;;9.91;100.00
25430;BME280;13360;48.152;-1.788;2022-09-30T05:54:46;101334.91;;;10.09;100.00
25430;BME280;13360;48.152;-1.788;2022-09-30T05:57:11;101343.44;;;10.18;100.00
25430;BME280;13360;48.152;-1.788;2022-09-30T05:59:37;101275.84;;;10.10;100.00
25430;BME280;13360;48.152;-1.788;2022-09-30T06:02:03;101240.00;;;9.95;100.00
25430;BME280;13360;48.152;-1.788;2022-09-30T06:04:29;101222.41;;;9.81;100.00
25430;BME280;13360;48.152;-1.788;2022-09-30T06:06:54;101217.44;;;9.72;100.00
25430;BME280;13360;48.152;-1.788;2022-09-30T06:09:19;101227.38;;;9.68;100.00
25430;BME280;13360;48.152;-1.788;2022-09-30T06:11:45;101241.72;;;9.65;100.00
25430;BME280;13360;48.152;-1.788;2022-09-30T06:14:10;101248.38;;;9.59;100.00
25430;BME280;13360;48.152;-1.788;2022-09-30T06:16:35;101274.81;;;9.70;100.00
25430;BME280;13360;48.152;-1.788;2022-09-30T06:19:01;101275.38;;;9.72;100.00
25430;BME280;13360;48.152;-1.788;2022-09-30T06:21:26;101269.84;;;9.72;100.00
25430;BME280;13360;48.152;-1.788;2022-09-30T06:23:53;101264.91;;;9.80;100.00
25430;BME280;13360;48.152;-1.788;2022-09-30T06:26:18;101317.84;;;9.82;100.00
25430;BME280;13360;48.152;-1.788;2022-09-30T06:28:44;101294.69;;;9.83;100.00
25430;BME280;13360;48.152;-1.788;2022-09-30T06:31:09;101261.31;;;9.69;100.00
25430;BME280;13360;48.152;-1.788;2022-09-30T06:33:35;101281.16;;;9.76;100.00
25430;BME280;13360;48.152;-1.788;2022-09-30T06:36:01;101285.28;;;9.78;100.00
25430;BME280;13360;48.152;-1.788;2022-09-30T06:38:30;101291.06;;;9.77;100.00
25430;BME280;13360;48.152;-1.788;2022-09-30T06:40:58;101318.66;;;9.87;100.00
25430;BME280;13360;48.152;-1.788;2022-09-30T06:43:23;101382.38;;;10.11;100.00
25430;BME280;13360;48.152;-1.788;2022-09-30T06:45:48;101376.59;;;10.07;100.00
25430;BME280;13360;48.152;-1.788;2022-09-30T06:48:16;101344.56;;;10.12;100.00
25430;BME280;13360;48.152;-1.788;2022-09-30T06:50:41;101342.34;;;10.14;100.00
25430;BME280;13360;48.152;-1.788;2022-09-30T06:53:09;101337.66;;;10.14;100.00
25430;BME280;13360;48.152;-1.788;2022-09-30T06:55:35;101348.69;;;10.14;100.00
25430;BME280;13360;48.152;-1.788;2022-09-30T06:58:05;101362.78;;;10.13;100.00
25430;BME280;13360;48.152;-1.788;2022-09-30T07:00:33;101367.19;;;10.19;100.00
25430;BME280;13360;48.152;-1.788;2022-09-30T07:02:58;101372.44;;;10.20;100.00
25430;BME280;13360;48.152;-1.788;2022-09-30T07:05:24;101377.13;;;10.20;100.00
25430;BME280;13360;48.152;-1.788;2022-09-30T07:07:51;101373.03;;;10.22;100.00
25430;BME280;13360;48.152;-1.788;2022-09-30T07:10:17;101385.69;;;10.33;100.00
25430;BME280;13360;48.152;-1.788;2022-09-30T07:12:42;101394.53;;;10.35;100.00
25430;BME280;13360;48.152;-1.788;2022-09-30T07:15:08;101405.00;;;10.38;100.00
25430;BME280;13360;48.152;-1.788;2022-09-30T07:17:33;101429.03;;;10.48;100.00
25430;BME280;13360;48.152;-1.788;2022-09-30T07:19:59;101438.66;;;10.56;100.00
25430;BME280;13360;48.152;-1.788;2022-09-30T07:22:24;101458.28;;;10.59;100.00
25430;BME280;13360;48.152;-1.788;2022-09-30T07:24:58;101470.44;;;10.63;100.00
25430;BME280;13360;48.152;-1.788;2022-09-30T07:27:28;101499.72;;;10.69;100.00
25430;BME280;13360;48.152;-1.788;2022-09-30T07:29:53;101516.00;;;10.76;100.00
25430;BME280;13360;48.152;-1.788;2022-09-30T07:32:22;101526.47;;;10.79;100.00
25430;BME280;13360;48.152;-1.788;2022-09-30T07:34:48;101542.25;;;10.84;100.00
25430;BME280;13360;48.152;-1.788;2022-09-30T07:37:14;101563.50;;;10.88;100.00
25430;BME280;13360;48.152;-1.788;2022-09-30T07:39:42;101592.25;;;10.92;100.00
25430;BME280;13360;48.152;-1.788;2022-09-30T07:42:08;101622.91;;;11.01;100.00
25430;BME280;13360;48.152;-1.788;2022-09-30T07:44:34;101641.16;;;11.02;100.00
25430;BME280;13360;48.152;-1.788;2022-09-30T07:47:01;101652.78;;;11.09;100.00
25430;BME280;13360;48.152;-1.788;2022-09-30T07:49:26;101679.31;;;11.15;100.00
25430;BME280;13360;48.152;-1.788;2022-09-30T07:51:54;101705.00;;;11.21;100.00
25430;BME280;13360;48.152;-1.788;2022-09-30T07:54:23;101723.81;;;11.24;100.00
25430;BME280;13360;48.152;-1.788;2022-09-30T07:56:50;101756.72;;;11.36;100.00
25430;BME280;13360;48.152;-1.788;2022-09-30T07:59:17;101760.59;;;11.35;100.00
25430;BME280;13360;48.152;-1.788;2022-09-30T08:01:43;101794.91;;;11.49;100.00
25430;BME280;13360;48.152;-1.788;2022-09-30T08:04:10;101816.19;;;11.58;100.00
25430;BME280;13360;48.152;-1.788;2022-09-30T08:06:39;101843.88;;;11.74;100.00
25430;BME280;13360;48.152;-1.788;2022-09-30T08:09:05;101858.28;;;12.01;100.00
25430;BME280;13360;48.152;-1.788;2022-09-30T08:11:34;101881.25;;;12.12;100.00
25430;BME280;13360;48.152;-1.788;2022-09-30T08:14:01;101892.59;;;12.20;100.00
25430;BME280;13360;48.152;-1.788;2022-09-30T08:16:27;101907.78;;;12.28;100.00
25430;BME280;13360;48.152;-1.788;2022-09-30T08:18:56;101933.56;;;12.39;100.00
25430;BME280;13360;48.152;-1.788;2022-09-30T08:21:22;101948.50;;;12.53;100.00
25430;BME280;13360;48.152;-1.788;2022-09-30T08:23:48;101942.88;;;12.68;100.00
25430;BME280;13360;48.152;-1.788;2022-09-30T08:26:13;101933.16;;;12.81;100.00
25430;BME280;13360;48.152;-1.788;2022-09-30T08:28:42;101940.41;;;12.72;100.00
25430;BME280;13360;48.152;-1.788;2022-09-30T08:33:38;101971.16;;;12.75;100.00
25430;BME280;13360;48.152;-1.788;2022-09-30T08:36:09;101978.91;;;12.78;100.00
25430;BME280;13360;48.152;-1.788;2022-09-30T08:38:35;101998.81;;;12.91;100.00
25430;BME280;13360;48.152;-1.788;2022-09-30T08:44:00;102049.00;;;13.20;100.00
25430;BME280;13360;48.152;-1.788;2022-09-30T08:52:17;102087.63;;;13.76;100.00
25430;BME280;13360;48.152;-1.788;2022-09-30T08:54:47;102101.91;;;14.03;100.00
25430;BME280;13360;48.152;-1.788;2022-09-30T08:57:14;102131.44;;;14.33;100.00
25430;BME280;13360;48.152;-1.788;2022-09-30T08:59:45;102116.28;;;14.59;100.00
25430;BME280;13360;48.152;-1.788;2022-09-30T09:02:14;102103.34;;;14.74;100.00
25430;BME280;13360;48.152;-1.788;2022-09-30T09:04:41;102067.19;;;14.74;100.00
25430;BME280;13360;48.152;-1.788;2022-09-30T09:12:49;102034.38;;;15.47;100.00
25430;BME280;13360;48.152;-1.788;2022-09-30T09:23:20;101925.50;;;15.87;100.00
25430;BME280;13360;48.152;-1.788;2022-09-30T09:25:46;101892.13;;;15.81;100.00
25430;BME280;13360;48.152;-1.788;2022-09-30T09:28:28;101911.88;;;15.99;100.00
25430;BME280;13360;48.152;-1.788;2022-09-30T09:30:58;101875.81;;;16.07;100.00
25430;BME280;13360;48.152;-1.788;2022-09-30T09:33:31;101882.38;;;15.98;100.00
25430;BME280;13360;48.152;-1.788;2022-09-30T09:38:39;101892.69;;;15.97;100.00
25430;BME280;13360;48.152;-1.788;2022-09-30T09:51:52;101859.72;;;16.32;100.00
25430;BME280;13360;48.152;-1.788;2022-09-30T09:54:23;101855.56;;;16.15;100.00
25430;BME280;13360;48.152;-1.788;2022-09-30T09:56:49;101867.31;;;15.99;100.00
25430;BME280;13360;48.152;-1.788;2022-09-30T09:59:17;101841.34;;;16.17;100.00
25430;BME280;13360;48.152;-1.788;2022-09-30T10:04:28;101844.63;;;16.19;100.00
25430;BME280;13360;48.152;-1.788;2022-09-30T10:07:01;101843.94;;;16.27;100.00
25430;BME280;13360;48.152;-1.788;2022-09-30T10:09:38;101876.47;;;16.32;100.00
25430;BME280;13360;48.152;-1.788;2022-09-30T10:17:26;101867.38;;;16.40;100.00
25430;BME280;13360;48.152;-1.788;2022-09-30T10:22:39;101828.53;;;16.43;100.00
25430;BME280;13360;48.152;-1.788;2022-09-30T10:25:23;101813.47;;;16.31;100.00
25430;BME280;13360;48.152;-1.788;2022-09-30T10:28:01;101774.41;;;16.44;100.00
25430;BME280;13360;48.152;-1.788;2022-09-30T10:30:43;101754.81;;;16.50;100.00
25430;BME280;13360;48.152;-1.788;2022-09-30T10:33:15;101747.34;;;16.59;100.00
25430;BME280;13360;48.152;-1.788;2022-09-30T10:36:10;101753.34;;;16.66;100.00
25430;BME280;13360;48.152;-1.788;2022-09-30T10:38:51;101717.44;;;16.23;100.00
25430;BME280;13360;48.152;-1.788;2022-09-30T10:41:24;101747.53;;;16.62;100.00
25430;BME280;13360;48.152;-1.788;2022-09-30T10:43:52;101752.44;;;16.70;100.00
25430;BME280;13360;48.152;-1.788;2022-09-30T10:46:24;101719.28;;;16.69;100.00
25430;BME280;13360;48.152;-1.788;2022-09-30T10:48:51;101701.06;;;16.71;100.00
25430;BME280;13360;48.152;-1.788;2022-09-30T10:51:30;101698.47;;;16.75;100.00
25430;BME280;13360;48.152;-1.788;2022-09-30T10:53:58;101696.53;;;16.98;100.00
25430;BME280;13360;48.152;-1.788;2022-09-30T10:56:42;101680.22;;;16.91;100.00
25430;BME280;13360;48.152;-1.788;2022-09-30T10:59:37;101679.47;;;16.99;100.00
25430;BME280;13360;48.152;-1.788;2022-09-30T11:04:43;101640.25;;;17.04;100.00
25430;BME280;13360;48.152;-1.788;2022-09-30T11:07:19;101611.16;;;16.97;100.00
25430;BME280;13360;48.152;-1.788;2022-09-30T11:16:02;101589.41;;;17.08;100.00
25430;BME280;13360;48.152;-1.788;2022-09-30T11:18:42;101570.47;;;17.04;100.00
25430;BME280;13360;48.152;-1.788;2022-09-30T11:21:17;101559.00;;;17.06;100.00
25430;BME280;13360;48.152;-1.788;2022-09-30T11:23:49;101531.22;;;17.01;100.00
25430;BME280;13360;48.152;-1.788;2022-09-30T11:31:30;101507.84;;;17.28;100.00
25430;BME280;13360;48.152;-1.788;2022-09-30T11:44:56;101515.38;;;17.19;100.00
25430;BME280;13360;48.152;-1.788;2022-09-30T11:58:08;101475.75;;;17.56;100.00
25430;BME280;13360;48.152;-1.788;2022-09-30T12:00:44;101483.44;;;17.42;100.00
25430;BME280;13360;48.152;-1.788;2022-09-30T12:03:33;101486.72;;;17.35;100.00
25430;BME280;13360;48.152;-1.788;2022-09-30T12:06:21;101466.66;;;17.33;100.00
25430;BME280;13360;48.152;-1.788;2022-09-30T12:08:53;101466.84;;;17.37;100.00
25430;BME280;13360;48.152;-1.788;2022-09-30T12:11:52;101437.09;;;17.32;100.00
25430;BME280;13360;48.152;-1.788;2022-09-30T12:14:43;101411.00;;;17.28;100.00
25430;BME280;13360;48.152;-1.788;2022-09-30T12:17:31;101421.19;;;17.42;100.00
25430;BME280;13360;48.152;-1.788;2022-09-30T12:20:06;101395.06;;;17.63;100.00
25430;BME280;13360;48.152;-1.788;2022-09-30T12:22:38;101372.06;;;17.66;100.00
25430;BME280;13360;48.152;-1.788;2022-09-30T12:25:19;101357.28;;;17.66;100.00
25430;BME280;13360;48.152;-1.788;2022-09-30T12:27:54;101366.97;;;17.43;100.00
25430;BME280;13360;48.152;-1.788;2022-09-30T12:30:22;101337.06;;;17.43;100.00
25430;BME280;13360;48.152;-1.788;2022-09-30T12:49:47;101338.56;;;17.49;100.00
25430;BME280;13360;48.152;-1.788;2022-09-30T12:52:15;101335.44;;;17.59;100.00
25430;BME280;13360;48.152;-1.788;2022-09-30T12:54:54;101334.63;;;17.67;100.00
25430;BME280;13360;48.152;-1.788;2022-09-30T12:57:26;101303.03;;;17.67;100.00
25430;BME280;13360;48.152;-1.788;2022-09-30T13:00:00;101299.78;;;17.56;100.00
25430;BME280;13360;48.152;-1.788;2022-09-30T13:31:19;101312.63;;;17.75;100.00
25430;BME280;13360;48.152;-1.788;2022-09-30T13:36:23;101279.44;;;17.21;100.00
25430;BME280;13360;48.152;-1.788;2022-09-30T13:39:20;101319.19;;;17.53;100.00
25430;BME280;13360;48.152;-1.788;2022-09-30T13:47:48;101262.50;;;17.52;100.00
25430;BME280;13360;48.152;-1.788;2022-09-30T13:52:54;101330.50;;;17.39;100.00
25430;BME280;13360;48.152;-1.788;2022-09-30T13:55:25;101327.88;;;17.34;100.00
25430;BME280;13360;48.152;-1.788;2022-09-30T14:00:55;101350.22;;;17.34;100.00
25430;BME280;13360;48.152;-1.788;2022-09-30T14:03:38;101357.28;;;17.31;100.00
25430;BME280;13360;48.152;-1.788;2022-09-30T14:06:19;101336.25;;;17.17;100.00
25430;BME280;13360;48.152;-1.788;2022-09-30T14:15:05;101387.97;;;17.23;100.00
25430;BME280;13360;48.152;-1.788;2022-09-30T14:23:37;101353.94;;;16.95;100.00
25430;BME280;13360;48.152;-1.788;2022-09-30T14:29:10;101398.97;;;17.19;100.00
25430;BME280;13360;48.152;-1.788;2022-09-30T14:31:45;101396.50;;;17.18;100.00
25430;BME280;13360;48.152;-1.788;2022-09-30T14:34:12;101396.66;;;17.21;100.00
25430;BME280;13360;48.152;-1.788;2022-09-30T14:36:39;101397.50;;;17.22;100.00
25430;BME280;13360;48.152;-1.788;2022-09-30T14:39:12;101399.47;;;17.21;100.00
25430;BME280;13360;48.152;-1.788;2022-09-30T14:41:51;101396.19;;;17.19;100.00
25430;BME280;13360;48.152;-1.788;2022-09-30T14:44:18;101406.53;;;17.19;100.00
25430;BME280;13360;48.152;-1.788;2022-09-30T14:46:46;101424.59;;;17.21;100.00
25430;BME280;13360;48.152;-1.788;2022-09-30T14:49:18;101414.56;;;17.20;100.00
25430;BME280;13360;48.152;-1.788;2022-09-30T14:51:46;101404.38;;;17.16;100.00
25430;BME280;13360;48.152;-1.788;2022-09-30T14:56:45;101429.69;;;17.19;100.00
25430;BME280;13360;48.152;-1.788;2022-09-30T14:59:24;101433.94;;;17.17;100.00
25430;BME280;13360;48.152;-1.788;2022-09-30T15:02:15;101437.72;;;17.21;100.00
25430;BME280;13360;48.152;-1.788;2022-09-30T15:04:53;101447.28;;;17.37;100.00
25430;BME280;13360;48.152;-1.788;2022-09-30T15:07:20;101459.63;;;17.45;100.00
25430;BME280;13360;48.152;-1.788;2022-09-30T15:09:46;101461.91;;;17.43;100.00
25430;BME280;13360;48.152;-1.788;2022-09-30T15:12:19;101453.50;;;17.25;100.00
25430;BME280;13360;48.152;-1.788;2022-09-30T15:14:50;101469.13;;;17.35;100.00
25430;BME280;13360;48.152;-1.788;2022-09-30T15:19:48;101461.59;;;17.44;100.00
25430;BME280;13360;48.152;-1.788;2022-09-30T15:22:15;101460.59;;;17.49;100.00
25430;BME280;13360;48.152;-1.788;2022-09-30T15:24:42;101460.13;;;17.55;100.00
25430;BME280;13360;48.152;-1.788;2022-09-30T15:27:18;101478.53;;;17.65;100.00
25430;BME280;13360;48.152;-1.788;2022-09-30T15:30:01;101469.22;;;17.70;100.00
25430;BME280;13360;48.152;-1.788;2022-09-30T15:32:29;101470.22;;;17.74;100.00
25430;BME280;13360;48.152;-1.788;2022-09-30T15:34:57;101470.50;;;17.63;100.00
25430;BME280;13360;48.152;-1.788;2022-09-30T15:37:29;101474.78;;;17.70;100.00
25430;BME280;13360;48.152;-1.788;2022-09-30T15:39:58;101478.44;;;17.70;100.00
25430;BME280;13360;48.152;-1.788;2022-09-30T15:42:55;101474.34;;;17.76;100.00
25430;BME280;13360;48.152;-1.788;2022-09-30T15:45:37;101478.75;;;17.68;100.00
25430;BME280;13360;48.152;-1.788;2022-09-30T15:50:38;101481.00;;;17.66;100.00
25430;BME280;13360;48.152;-1.788;2022-09-30T15:53:05;101483.31;;;17.64;100.00
25430;BME280;13360;48.152;-1.788;2022-09-30T15:55:43;101476.91;;;17.64;100.00
25430;BME280;13360;48.152;-1.788;2022-09-30T16:00:51;101477.41;;;17.57;100.00
25430;BME280;13360;48.152;-1.788;2022-09-30T16:05:44;101479.31;;;17.48;100.00
25430;BME280;13360;48.152;-1.788;2022-09-30T16:08:19;101492.97;;;17.41;100.00
25430;BME280;13360;48.152;-1.788;2022-09-30T16:10:49;101519.94;;;17.54;100.00
25430;BME280;13360;48.152;-1.788;2022-09-30T16:13:15;101525.03;;;17.52;100.00
25430;BME280;13360;48.152;-1.788;2022-09-30T16:15:40;101537.19;;;17.56;100.00
25430;BME280;13360;48.152;-1.788;2022-09-30T16:18:16;101547.53;;;17.56;100.00
25430;BME280;13360;48.152;-1.788;2022-09-30T16:21:01;101532.41;;;17.48;100.00
25430;BME280;13360;48.152;-1.788;2022-09-30T16:23:35;101524.66;;;17.36;100.00
25430;BME280;13360;48.152;-1.788;2022-09-30T16:26:21;101563.25;;;17.43;100.00
25430;BME280;13360;48.152;-1.788;2022-09-30T16:28:52;101560.63;;;17.38;100.00
25430;BME280;13360;48.152;-1.788;2022-09-30T16:31:20;101561.13;;;17.40;100.00
25430;BME280;13360;48.152;-1.788;2022-09-30T16:33:46;101571.66;;;17.43;100.00
25430;BME280;13360;48.152;-1.788;2022-09-30T16:36:12;101587.13;;;17.49;100.00
25430;BME280;13360;48.152;-1.788;2022-09-30T16:38:39;101604.38;;;17.51;100.00
25430;BME280;13360;48.152;-1.788;2022-09-30T16:41:04;101618.34;;;17.51;100.00
25430;BME280;13360;48.152;-1.788;2022-09-30T16:43:30;101639.66;;;17.47;100.00
25430;BME280;13360;48.152;-1.788;2022-09-30T16:45:56;101648.47;;;17.32;100.00